Pine City, MN

4:03 AM CST on February 22, 2017 (GMT -0600)
Clam River Flowage | | Change Station
Active Advisory: Winter Storm Watch

Elev 951 ft 45.93 °N, 92.53 °W | Updated 7 seconds ago

Fog
Fog
32.5 °F
Feels Like 32.5 °F
N
0.0
Wind Variable Wind from South
Gusts 0.0 mph

Today
High -- | Low -- °F
--% Chance of Precip.
Yesterday
High -- | Low -- °F
Precip. -- in
Pressure 29.63 in
Visibility 0.2 miles
Clouds Mostly Cloudy 100 ft
Dew Point 32.3 °F
Humidity 99%
Rainfall 0.00 in
Snow Depth Not available.
7:02 AM 5:49 PM
Waning Crescent, 18% visible
METAR KROS 220955Z AUTO 00000KT 1/4SM FG BKN001 00/00 A2963 RMK AO2
Pressure 29.63 in
Visibility 0.2 miles
Clouds Mostly Cloudy 100 ft
Dew Point 32.3 °F
Humidity 99%
Rainfall 0.00 in
Snow Depth Not available.
7:02 AM 5:49 PM
Waning Crescent, 18% visible
METAR KROS 220955Z AUTO 00000KT 1/4SM FG BKN001 00/00 A2963 RMK AO2

Get Your Daily Forecast Email!

Thanks for signing up!

Be on the lookout for a verification email in your inbox.

You'll start receiving the daily forecast at 8 AM.

×

10-Day Weather Forecast

Almanac

Astronomy

Feb. 22, 2017 Rise Set
Actual Time
Civil Twilight
Nautical Twilight
Astronomical Twilight
Moon
Length of Visible Light
Length of Day
Tomorrow will be .
, % of the Moon is Illuminated

Today's Extremes

State Highs State Lows

Community

WunderPhotos

Upload Photos

1,962,540 photos uploaded!

WunderBlog® & News

Nearby

Air Quality

  Air Quality AQ Index Pollutant
Not available.

Snow Depth

Station Depth Elevation

Earthquake Activity

City Distance Mag. Time & Date
Minimum magnitude displayed is 2.5.

Coastal Water Temperatures

Place Temperature

Stations

Nearby Weather Stations

Station Location Temp. Windchill Dew Point Humidity Wind Precip. Elev Updated Type
                   

Watches & Warnings

Winter Storm Watch
Issued: 3:49 AM CST Feb. 22, 2017 – National Weather Service

... Winter Storm Watch in effect from Thursday evening through
late Friday night...

The National Weather Service in Duluth has issued a Winter Storm
Watch... which is in effect from Thursday evening through late
Friday night.

* Locations... Pine County east through Price County. This includes
Hinckley, Siren, Hayward, Park falls and Phillips.

* Snow accumulations... greater than 6 inches.

* Winds... northeast 10 to 20 mph with gusts up to 35 mph.

* Visibilities... less than one half mile in the heavier snow.

* Impacts... the snow will affect travel.

Precautionary/preparedness actions...

A Winter Storm Watch means there is a potential for significant
snow that may impact travel. Continue to monitor the latest
forecasts for updates.